createdAt,value
2022-10-12T00:00:02.922Z,0
2022-10-12T00:01:06.409Z,0
2022-10-12T00:02:09.609Z,0
2022-10-12T00:03:13.494Z,0
2022-10-12T00:04:16.653Z,0
2022-10-12T00:05:20.399Z,0
2022-10-12T00:06:24.071Z,0
2022-10-12T00:07:27.448Z,0
2022-10-12T00:08:30.796Z,0
2022-10-12T00:09:34.358Z,0
2022-10-12T00:10:37.728Z,0
2022-10-12T00:11:41.232Z,0
2022-10-12T00:12:44.020Z,0
2022-10-12T00:13:47.230Z,0
2022-10-12T00:14:50.305Z,0
2022-10-12T00:15:53.396Z,0
2022-10-12T00:16:55.915Z,0
2022-10-12T00:17:59.028Z,0
2022-10-12T00:19:02.403Z,0
2022-10-12T00:20:06.076Z,0
2022-10-12T00:21:09.525Z,0
2022-10-12T00:22:12.489Z,0
2022-10-12T00:23:15.919Z,0
2022-10-12T00:24:19.156Z,0
2022-10-12T00:25:21.196Z,0
2022-10-12T00:26:24.473Z,0
2022-10-12T00:27:27.921Z,0
2022-10-12T00:28:30.868Z,0
2022-10-12T00:29:33.696Z,0
2022-10-12T00:30:36.583Z,0
2022-10-12T00:31:39.366Z,0
2022-10-12T00:32:42.524Z,0
2022-10-12T00:33:46.180Z,0
2022-10-12T00:34:49.669Z,0
2022-10-12T00:35:52.528Z,0
2022-10-12T00:36:55.680Z,0
2022-10-12T00:37:59.118Z,0
2022-10-12T00:39:02.569Z,0
2022-10-12T00:40:06.020Z,0
2022-10-12T00:41:08.833Z,0
2022-10-12T00:42:11.907Z,0
2022-10-12T00:43:15.645Z,0
2022-10-12T00:44:18.358Z,0
2022-10-12T00:45:20.883Z,0
2022-10-12T00:46:23.599Z,0
2022-10-12T00:47:26.584Z,0
2022-10-12T00:48:29.105Z,0
2022-10-12T00:49:32.454Z,0
2022-10-12T00:50:35.582Z,0
2022-10-12T00:51:38.674Z,0
2022-10-12T00:52:41.661Z,0
2022-10-12T00:53:44.532Z,0
2022-10-12T00:54:48.320Z,0
2022-10-12T00:55:51.820Z,0
2022-10-12T00:56:54.338Z,0
2022-10-12T00:57:57.797Z,0
2022-10-12T00:59:00.550Z,0
2022-10-12T01:00:03.330Z,0
2022-10-12T01:01:06.832Z,0
2022-10-12T01:02:10.682Z,0
2022-10-12T01:03:13.788Z,0
2022-10-12T01:04:17.165Z,0
2022-10-12T01:05:20.592Z,0
2022-10-12T01:06:24.042Z,0
2022-10-12T01:07:27.416Z,0
2022-10-12T01:08:30.954Z,0
2022-10-12T01:09:33.660Z,0
2022-10-12T01:10:36.634Z,0
2022-10-12T01:11:39.695Z,0
2022-10-12T01:12:42.494Z,0
2022-10-12T01:13:45.010Z,0
2022-10-12T01:14:48.172Z,0
2022-10-12T01:15:51.521Z,0
2022-10-12T01:16:54.309Z,0
2022-10-12T01:17:57.115Z,0
2022-10-12T01:18:59.914Z,0
2022-10-12T01:20:02.990Z,0
2022-10-12T01:21:05.795Z,0
2022-10-12T01:22:08.431Z,0
2022-10-12T01:23:11.815Z,0
2022-10-12T01:24:15.520Z,0
2022-10-12T01:25:19.220Z,0
2022-10-12T01:26:22.676Z,0
2022-10-12T01:27:26.403Z,0
2022-10-12T01:28:29.218Z,0
2022-10-12T01:29:32.535Z,0
2022-10-12T01:30:35.055Z,0
2022-10-12T01:31:38.031Z,0
2022-10-12T01:32:40.756Z,0
2022-10-12T01:33:44.024Z,0
2022-10-12T01:34:46.822Z,0
2022-10-12T01:35:50.547Z,0
2022-10-12T01:36:53.684Z,0
2022-10-12T01:37:57.237Z,0
2022-10-12T01:39:00.699Z,0
2022-10-12T01:40:03.635Z,0
2022-10-12T01:41:06.541Z,0
2022-10-12T01:42:09.991Z,0
2022-10-12T01:43:12.644Z,0
2022-10-12T01:44:16.067Z,0
2022-10-12T01:45:18.928Z,0
2022-10-12T01:46:21.747Z,0
2022-10-12T01:47:24.837Z,0
2022-10-12T01:48:27.717Z,0
2022-10-12T01:49:30.155Z,0
2022-10-12T01:50:32.978Z,0
2022-10-12T01:51:35.223Z,0
2022-10-12T01:52:38.293Z,0
2022-10-12T01:53:41.557Z,0
2022-10-12T01:54:44.680Z,0
2022-10-12T01:55:47.749Z,0
2022-10-12T01:56:50.626Z,0
2022-10-12T01:57:54.162Z,0
2022-10-12T01:58:57.680Z,0
2022-10-12T02:00:00.856Z,0
2022-10-12T02:01:04.673Z,0
2022-10-12T02:02:08.939Z,0
2022-10-12T02:03:12.080Z,0
2022-10-12T02:04:14.771Z,0
2022-10-12T02:05:17.582Z,0
2022-10-12T02:06:20.203Z,0
2022-10-12T02:07:23.655Z,0
2022-10-12T02:08:26.722Z,0
2022-10-12T02:09:29.915Z,0
2022-10-12T02:10:33.007Z,0
2022-10-12T02:11:35.991Z,0
2022-10-12T02:12:38.783Z,0
2022-10-12T02:13:42.499Z,0
2022-10-12T02:14:45.385Z,0
2022-10-12T02:15:48.442Z,0
2022-10-12T02:16:51.306Z,0
2022-10-12T02:17:54.116Z,0
2022-10-12T02:18:56.826Z,0
2022-10-12T02:19:59.443Z,0
2022-10-12T02:21:02.605Z,0
2022-10-12T02:22:05.761Z,0
2022-10-12T02:23:09.234Z,0
2022-10-12T02:24:12.412Z,0
2022-10-12T02:25:15.716Z,0
2022-10-12T02:26:18.802Z,0
2022-10-12T02:27:21.958Z,0
2022-10-12T02:28:25.502Z,0
2022-10-12T02:29:29.419Z,0
2022-10-12T02:30:32.769Z,0
2022-10-12T02:31:35.469Z,0
2022-10-12T02:32:37.623Z,0
2022-10-12T02:33:40.706Z,0
2022-10-12T02:34:43.225Z,0
2022-10-12T02:35:46.477Z,0
2022-10-12T02:36:49.966Z,0
2022-10-12T02:37:52.491Z,0
2022-10-12T02:38:55.580Z,0
2022-10-12T02:39:58.404Z,0
2022-10-12T02:41:01.331Z,0
2022-10-12T02:42:05.056Z,0
2022-10-12T02:43:11.031Z,0
2022-10-12T02:44:14.392Z,0
2022-10-12T02:45:18.121Z,0
2022-10-12T02:46:21.844Z,0
2022-10-12T02:47:25.184Z,0
2022-10-12T02:48:28.240Z,0
2022-10-12T02:49:30.904Z,0
2022-10-12T02:50:34.335Z,0
2022-10-12T02:51:37.146Z,0
2022-10-12T02:52:40.021Z,0
2022-10-12T02:53:43.212Z,0
2022-10-12T02:54:46.409Z,0
2022-10-12T02:55:49.217Z,0
2022-10-12T02:56:52.417Z,0
2022-10-12T02:57:54.953Z,0
2022-10-12T02:58:57.944Z,0
2022-10-12T02:59:59.894Z,0
2022-10-12T03:01:03.455Z,0
2022-10-12T03:02:07.067Z,0
2022-10-12T03:03:10.139Z,0
2022-10-12T03:04:12.864Z,0
2022-10-12T03:05:16.131Z,0
2022-10-12T03:06:19.692Z,0
2022-10-12T03:07:22.840Z,0
2022-10-12T03:08:26.184Z,0
2022-10-12T03:09:29.335Z,0
2022-10-12T03:10:32.044Z,0
2022-10-12T03:11:34.670Z,0
2022-10-12T03:12:37.864Z,0
2022-10-12T03:13:41.231Z,0
2022-10-12T03:14:43.469Z,0
2022-10-12T03:15:47.135Z,0
2022-10-12T03:16:50.651Z,0
2022-10-12T03:17:53.642Z,0
2022-10-12T03:18:57.337Z,0
2022-10-12T03:20:00.756Z,0
2022-10-12T03:21:03.154Z,0
2022-10-12T03:22:06.230Z,0
2022-10-12T03:23:09.290Z,0
2022-10-12T03:24:11.813Z,0
2022-10-12T03:25:14.048Z,0
2022-10-12T03:26:17.740Z,0
2022-10-12T03:27:20.819Z,0
2022-10-12T03:28:24.119Z,0
2022-10-12T03:29:28.372Z,0
2022-10-12T03:30:31.628Z,0
2022-10-12T03:31:35.403Z,0
2022-10-12T03:32:38.872Z,0
2022-10-12T03:33:41.747Z,0
2022-10-12T03:34:44.244Z,0
2022-10-12T03:35:47.294Z,0
2022-10-12T03:36:50.435Z,0
2022-10-12T03:37:54.039Z,0
2022-10-12T03:38:57.586Z,0
2022-10-12T03:40:01.060Z,0
2022-10-12T03:41:06.664Z,0
2022-10-12T03:42:09.967Z,0
2022-10-12T03:43:13.051Z,0
2022-10-12T03:44:16.162Z,0
2022-10-12T03:45:19.898Z,0
2022-10-12T03:46:23.433Z,0
2022-10-12T03:47:26.574Z,0
2022-10-12T03:48:30.224Z,0
2022-10-12T03:49:33.402Z,0
2022-10-12T03:50:36.898Z,0
2022-10-12T03:51:39.102Z,0
2022-10-12T03:52:42.201Z,0
2022-10-12T03:53:45.935Z,0
2022-10-12T03:54:48.191Z,0
2022-10-12T03:55:51.055Z,0
2022-10-12T03:56:53.849Z,0
2022-10-12T03:57:57.208Z,0
2022-10-12T03:59:00.085Z,0
2022-10-12T04:00:03.467Z,0
2022-10-12T04:01:07.021Z,0
2022-10-12T04:02:13.138Z,0
2022-10-12T04:03:20.103Z,0
2022-10-12T04:04:22.997Z,0
2022-10-12T04:05:25.778Z,0
2022-10-12T04:06:28.552Z,0
2022-10-12T04:07:31.459Z,0
2022-10-12T04:08:34.258Z,0
2022-10-12T04:09:37.680Z,0
2022-10-12T04:10:41.034Z,0
2022-10-12T04:11:44.148Z,0
2022-10-12T04:12:47.024Z,0
2022-10-12T04:13:50.178Z,0
2022-10-12T04:14:53.254Z,0
2022-10-12T04:15:57.104Z,0
2022-10-12T04:17:00.272Z,0
2022-10-12T04:18:03.072Z,0
2022-10-12T04:19:06.435Z,0
2022-10-12T04:20:10.166Z,0
2022-10-12T04:21:12.958Z,0
2022-10-12T04:22:16.331Z,0
2022-10-12T04:23:19.305Z,0
2022-10-12T04:24:21.538Z,0
2022-10-12T04:25:29.191Z,0
2022-10-12T04:26:33.031Z,0
2022-10-12T04:27:36.314Z,0
2022-10-12T04:28:42.114Z,0
2022-10-12T04:29:45.029Z,0
2022-10-12T04:30:48.119Z,0
2022-10-12T04:31:51.255Z,0
2022-10-12T04:32:54.409Z,0
2022-10-12T04:33:57.499Z,0
2022-10-12T04:35:00.909Z,0
2022-10-12T04:36:04.717Z,0
2022-10-12T04:37:08.144Z,0
2022-10-12T04:38:10.952Z,0
2022-10-12T04:39:13.847Z,0
2022-10-12T04:40:17.574Z,0
2022-10-12T04:41:20.783Z,0
2022-10-12T04:42:24.370Z,0
2022-10-12T04:43:27.250Z,0
2022-10-12T04:44:32.300Z,0
2022-10-12T04:45:35.607Z,0
2022-10-12T04:46:38.478Z,0
2022-10-12T04:47:41.461Z,0
2022-10-12T04:48:44.950Z,0
2022-10-12T04:49:48.031Z,0
2022-10-12T04:50:50.814Z,0
2022-10-12T04:51:54.605Z,0
2022-10-12T04:52:57.453Z,0
2022-10-12T04:53:59.970Z,0
2022-10-12T04:55:02.874Z,0
2022-10-12T04:56:06.341Z,0
2022-10-12T04:57:10.004Z,0
2022-10-12T04:58:13.460Z,0
2022-10-12T04:59:16.863Z,0
2022-10-12T05:00:19.024Z,0
2022-10-12T05:01:22.765Z,4
2022-10-12T05:02:25.404Z,4
2022-10-12T05:03:28.430Z,0
2022-10-12T05:04:31.565Z,4
2022-10-12T05:05:34.217Z,4
2022-10-12T05:06:37.670Z,4
2022-10-12T05:07:41.369Z,8
2022-10-12T05:08:44.731Z,8
2022-10-12T05:09:48.190Z,8
2022-10-12T05:10:50.867Z,8
2022-10-12T05:11:53.655Z,12
2022-10-12T05:12:56.837Z,12
2022-10-12T05:14:00.099Z,12
2022-10-12T05:15:02.994Z,20
2022-10-12T05:16:04.955Z,20
2022-10-12T05:17:08.272Z,28
2022-10-12T05:18:10.518Z,28
2022-10-12T05:19:13.573Z,32
2022-10-12T05:20:17.009Z,40
2022-10-12T05:21:20.347Z,48
2022-10-12T05:22:23.429Z,52
2022-10-12T05:23:27.148Z,64
2022-10-12T05:24:30.255Z,72
2022-10-12T05:25:33.684Z,80
2022-10-12T05:26:37.032Z,92
2022-10-12T05:27:39.882Z,96
2022-10-12T05:28:44.015Z,108
2022-10-12T05:29:47.494Z,124
2022-10-12T05:30:50.301Z,136
2022-10-12T05:31:53.122Z,152
2022-10-12T05:32:55.648Z,164
2022-10-12T05:33:58.515Z,176
2022-10-12T05:35:01.731Z,192
2022-10-12T05:36:05.174Z,212
2022-10-12T05:37:07.885Z,224
2022-10-12T05:38:11.036Z,240
2022-10-12T05:39:14.566Z,256
2022-10-12T05:40:17.148Z,272
2022-10-12T05:41:20.303Z,292
2022-10-12T05:42:24.005Z,316
2022-10-12T05:43:26.992Z,340
2022-10-12T05:44:30.225Z,360
2022-10-12T05:45:32.741Z,376
2022-10-12T05:46:35.731Z,392
2022-10-12T05:47:38.972Z,404
2022-10-12T05:48:43.142Z,432
2022-10-12T05:49:46.001Z,456
2022-10-12T05:50:48.868Z,476
2022-10-12T05:51:51.947Z,484
2022-10-12T05:52:55.412Z,516
2022-10-12T05:53:57.916Z,548
2022-10-12T05:55:01.426Z,592
2022-10-12T05:56:04.818Z,640
2022-10-12T05:57:07.970Z,684
2022-10-12T05:58:11.158Z,724
2022-10-12T05:59:14.042Z,756
2022-10-12T06:00:17.845Z,792
2022-10-12T06:01:20.496Z,828
2022-10-12T06:02:23.851Z,872
2022-10-12T06:03:27.440Z,916
2022-10-12T06:04:37.768Z,972
2022-10-12T06:05:41.507Z,1004
2022-10-12T06:06:44.877Z,1024
2022-10-12T06:07:48.321Z,1032
2022-10-12T06:08:51.500Z,1056
2022-10-12T06:09:54.377Z,1084
2022-10-12T06:10:57.607Z,1116
2022-10-12T06:12:00.120Z,1144
2022-10-12T06:13:03.049Z,1180
2022-10-12T06:14:05.470Z,1220
2022-10-12T06:15:08.872Z,1256
2022-10-12T06:16:11.563Z,1280
2022-10-12T06:17:14.080Z,1292
2022-10-12T06:18:17.794Z,1312
2022-10-12T06:19:21.265Z,1336
2022-10-12T06:20:24.765Z,1376
2022-10-12T06:21:34.944Z,1404
2022-10-12T06:22:38.430Z,1404
2022-10-12T06:23:43.686Z,1388
2022-10-12T06:24:46.495Z,1392
2022-10-12T06:25:49.433Z,1416
2022-10-12T06:26:52.607Z,1452
2022-10-12T06:27:56.027Z,1500
2022-10-12T06:28:59.754Z,1548
2022-10-12T06:30:03.129Z,1564
2022-10-12T06:31:05.917Z,1564
2022-10-12T06:32:09.363Z,1568
2022-10-12T06:33:12.425Z,1600
2022-10-12T06:34:15.505Z,1660
2022-10-12T06:35:18.759Z,1716
2022-10-12T06:36:21.911Z,1732
2022-10-12T06:37:48.342Z,1724
2022-10-12T06:38:53.885Z,1764
2022-10-12T06:39:57.042Z,1840
2022-10-12T06:41:00.696Z,1908
2022-10-12T06:42:04.119Z,1940
2022-10-12T06:43:07.768Z,1952
2022-10-12T06:44:10.288Z,1984
2022-10-12T06:45:12.843Z,2040
2022-10-12T06:46:15.840Z,2088
2022-10-12T06:47:18.374Z,2120
2022-10-12T06:48:21.736Z,2164
2022-10-12T06:49:24.162Z,2232
2022-10-12T06:50:26.753Z,2324
2022-10-12T06:51:28.900Z,2424
2022-10-12T06:52:32.256Z,2500
2022-10-12T06:53:35.343Z,2536
2022-10-12T06:54:39.445Z,2528
2022-10-12T06:55:42.324Z,2520
2022-10-12T06:56:45.675Z,2544
2022-10-12T06:57:49.470Z,2576
2022-10-12T06:58:52.343Z,2572
2022-10-12T06:59:55.147Z,2536
2022-10-12T07:00:58.670Z,2528
2022-10-12T07:02:01.971Z,2580
2022-10-12T07:03:05.260Z,2652
2022-10-12T07:04:08.618Z,2704
2022-10-12T07:05:11.411Z,2728
2022-10-12T07:06:14.486Z,2780
2022-10-12T07:07:17.818Z,2852
2022-10-12T07:08:21.624Z,2896
2022-10-12T07:09:25.343Z,2896
2022-10-12T07:10:29.177Z,2900
2022-10-12T07:11:31.703Z,2900
2022-10-12T07:12:34.546Z,2856
2022-10-12T07:13:40.289Z,2792
2022-10-12T07:14:43.650Z,2772
2022-10-12T07:15:46.079Z,2804
2022-10-12T07:16:54.319Z,2868
2022-10-12T07:17:58.706Z,2932
2022-10-12T07:19:02.085Z,3000
2022-10-12T07:20:05.549Z,3080
2022-10-12T07:21:08.977Z,3132
2022-10-12T07:22:11.770Z,3140
2022-10-12T07:23:14.910Z,3136
2022-10-12T07:24:17.708Z,3180
2022-10-12T07:25:20.570Z,3284
2022-10-12T07:26:23.771Z,3400
2022-10-12T07:27:26.754Z,3476
2022-10-12T07:28:30.024Z,3540
2022-10-12T07:29:34.580Z,3628
2022-10-12T07:30:37.927Z,3732
2022-10-12T07:31:41.295Z,3788
2022-10-12T07:32:43.555Z,3776
2022-10-12T07:33:46.360Z,3784
2022-10-12T07:34:49.175Z,3844
2022-10-12T07:36:12.579Z,3928
2022-10-12T07:38:00.661Z,4036
2022-10-12T07:39:03.813Z,4040
2022-10-12T07:40:07.191Z,4060
2022-10-12T07:41:10.535Z,4084
2022-10-12T07:42:18.310Z,4096
2022-10-12T07:43:22.686Z,4140
2022-10-12T07:44:25.825Z,4240
2022-10-12T07:45:30.023Z,4320
2022-10-12T07:46:33.192Z,4328
2022-10-12T07:47:36.547Z,4308
2022-10-12T07:48:45.849Z,4308
2022-10-12T07:49:53.048Z,4372
2022-10-12T07:50:55.915Z,4452
2022-10-12T07:51:58.920Z,4532
2022-10-12T07:53:01.987Z,4660
2022-10-12T07:54:04.316Z,4816
2022-10-12T07:55:07.682Z,4976
2022-10-12T07:56:10.750Z,5120
2022-10-12T07:57:14.478Z,5180
2022-10-12T07:58:18.319Z,5164
2022-10-12T07:59:21.432Z,5124
2022-10-12T08:00:24.196Z,5108
2022-10-12T08:01:27.872Z,5188
2022-10-12T08:02:31.187Z,5344
2022-10-12T08:03:34.652Z,5508
2022-10-12T08:04:38.092Z,5624
2022-10-12T08:05:40.896Z,5720
2022-10-12T08:06:43.704Z,5828
2022-10-12T08:07:46.420Z,5984
2022-10-12T08:08:49.653Z,6192
2022-10-12T08:09:52.798Z,6312
2022-10-12T08:10:56.221Z,6328
2022-10-12T08:11:59.359Z,6308
2022-10-12T08:13:01.328Z,6380
2022-10-12T08:14:05.388Z,6504
2022-10-12T08:15:08.492Z,6620
2022-10-12T08:16:11.662Z,6688
2022-10-12T08:17:15.618Z,6708
2022-10-12T08:18:19.405Z,6676
2022-10-12T08:19:22.278Z,6660
2022-10-12T08:20:25.814Z,6704
2022-10-12T08:21:29.193Z,6788
2022-10-12T08:22:31.991Z,6796
2022-10-12T08:23:35.557Z,6652
2022-10-12T08:24:38.001Z,6552
2022-10-12T08:25:41.882Z,6580
2022-10-12T08:26:44.875Z,6724
2022-10-12T08:27:47.826Z,6864
2022-10-12T08:28:51.078Z,6924
2022-10-12T08:29:55.546Z,6952
2022-10-12T08:30:58.431Z,6964
2022-10-12T08:32:01.780Z,7012
2022-10-12T08:33:09.536Z,7080
2022-10-12T08:34:13.901Z,7080
2022-10-12T08:35:16.073Z,7020
2022-10-12T08:36:19.530Z,6996
2022-10-12T08:37:22.704Z,7028
2022-10-12T08:38:26.431Z,7064
2022-10-12T08:39:29.420Z,7040
2022-10-12T08:40:31.962Z,7020
2022-10-12T08:41:35.062Z,7076
2022-10-12T08:42:38.504Z,7204
2022-10-12T08:43:41.782Z,7340
2022-10-12T08:44:45.221Z,7388
2022-10-12T08:45:48.749Z,7292
2022-10-12T08:46:51.000Z,7220
2022-10-12T08:47:54.190Z,7272
2022-10-12T08:48:58.001Z,7368
2022-10-12T08:50:01.420Z,7332
2022-10-12T08:51:04.662Z,7220
2022-10-12T08:52:12.273Z,7180
2022-10-12T08:53:15.346Z,7240
2022-10-12T08:54:18.143Z,7280
2022-10-12T08:55:21.490Z,7308
2022-10-12T08:56:24.722Z,7352
2022-10-12T08:57:28.082Z,7432
2022-10-12T08:58:32.165Z,7552
2022-10-12T08:59:35.922Z,7664
2022-10-12T09:00:39.387Z,7716
2022-10-12T09:01:43.280Z,7732
2022-10-12T09:02:47.013Z,7652
2022-10-12T09:03:50.074Z,7588
2022-10-12T09:04:53.349Z,7592
2022-10-12T09:05:56.151Z,7680
2022-10-12T09:06:59.078Z,7776
2022-10-12T09:08:01.672Z,7804
2022-10-12T09:09:05.023Z,7724
2022-10-12T09:10:07.913Z,7628
2022-10-12T09:11:10.750Z,7620
2022-10-12T09:12:14.387Z,7764
2022-10-12T09:13:17.712Z,7984
2022-10-12T09:14:20.602Z,8100
2022-10-12T09:15:23.865Z,8020
2022-10-12T09:16:27.680Z,7888
2022-10-12T09:17:31.266Z,7912
2022-10-12T09:18:38.298Z,8012
2022-10-12T09:19:44.452Z,8128
2022-10-12T09:20:48.420Z,8108
2022-10-12T09:21:51.406Z,8100
2022-10-12T09:22:54.576Z,8248
2022-10-12T09:23:57.937Z,8528
2022-10-12T09:25:00.751Z,8800
2022-10-12T09:26:03.699Z,8868
2022-10-12T09:27:06.855Z,8816
2022-10-12T09:28:10.639Z,8768
2022-10-12T09:29:14.091Z,8852
2022-10-12T09:30:17.160Z,9024
2022-10-12T09:31:19.512Z,9152
2022-10-12T09:32:22.669Z,9152
2022-10-12T09:33:26.683Z,9144
2022-10-12T09:34:30.169Z,9248
2022-10-12T09:35:33.597Z,9288
2022-10-12T09:36:36.877Z,9280
2022-10-12T09:37:40.613Z,9256
2022-10-12T09:38:44.046Z,9304
2022-10-12T09:39:47.746Z,9388
2022-10-12T09:40:51.124Z,9456
2022-10-12T09:41:53.909Z,9500
2022-10-12T09:42:57.652Z,9404
2022-10-12T09:44:01.187Z,9352
2022-10-12T09:45:03.349Z,9532
2022-10-12T09:46:06.993Z,9976
2022-10-12T09:47:10.058Z,10392
2022-10-12T09:48:12.967Z,10560
2022-10-12T09:49:16.887Z,10684
2022-10-12T09:50:19.755Z,11192
2022-10-12T09:51:22.544Z,11764
2022-10-12T09:52:26.282Z,12268
2022-10-12T09:53:29.366Z,12760
2022-10-12T09:54:32.543Z,13504
2022-10-12T09:55:35.613Z,14536
2022-10-12T09:56:38.707Z,15536
2022-10-12T09:57:42.438Z,16524
2022-10-12T09:58:45.616Z,18196
2022-10-12T09:59:49.062Z,21248
2022-10-12T10:00:52.257Z,28608
2022-10-12T10:01:55.691Z,59520
2022-10-12T10:02:58.706Z,104928
2022-10-12T10:04:01.574Z,137440
2022-10-12T10:05:05.397Z,109216
2022-10-12T10:06:08.930Z,130976
2022-10-12T10:07:12.110Z,123776
2022-10-12T10:08:15.962Z,126976
2022-10-12T10:09:18.846Z,123200
2022-10-12T10:10:26.875Z,120480
2022-10-12T10:11:33.883Z,118368
2022-10-12T10:12:37.515Z,118016
2022-10-12T10:13:41.254Z,117408
2022-10-12T10:14:44.167Z,115616
2022-10-12T10:15:47.554Z,114016
2022-10-12T10:16:50.508Z,113696
2022-10-12T10:17:53.253Z,111296
2022-10-12T10:18:55.890Z,109216
2022-10-12T10:19:59.237Z,108896
2022-10-12T10:21:02.521Z,109952
2022-10-12T10:22:05.353Z,109824
2022-10-12T10:23:08.161Z,109504
2022-10-12T10:24:12.153Z,112096
2022-10-12T10:25:15.245Z,114208
2022-10-12T10:27:21.426Z,116736
2022-10-12T10:28:24.195Z,115200
2022-10-12T10:29:27.507Z,116096
2022-10-12T10:30:33.742Z,114720
2022-10-12T10:31:46.657Z,117792
2022-10-12T10:32:49.832Z,120192
2022-10-12T10:33:53.358Z,122016
2022-10-12T10:34:56.939Z,123072
2022-10-12T10:36:00.436Z,122016
2022-10-12T10:37:04.342Z,120416
2022-10-12T10:38:07.289Z,122016
2022-10-12T10:39:10.399Z,125824
2022-10-12T10:40:14.497Z,127200
2022-10-12T10:41:20.475Z,109632
2022-10-12T10:42:24.158Z,122784
2022-10-12T10:43:27.343Z,121984
2022-10-12T10:44:30.354Z,122048
2022-10-12T10:45:34.489Z,121728
2022-10-12T10:46:38.624Z,21536
2022-10-12T10:47:41.240Z,19264
2022-10-12T10:48:44.906Z,20512
2022-10-12T10:49:48.804Z,20384
2022-10-12T10:50:52.695Z,58688
2022-10-12T10:51:55.532Z,56448
2022-10-12T10:52:59.106Z,103584
2022-10-12T10:54:01.930Z,130464
2022-10-12T10:55:05.357Z,128096
2022-10-12T10:56:08.694Z,123168
2022-10-12T10:57:12.160Z,122080
2022-10-12T10:58:15.032Z,123424
2022-10-12T10:59:18.017Z,123456
2022-10-12T11:01:54.531Z,18880
2022-10-12T11:02:58.190Z,18848
2022-10-12T11:04:01.278Z,20864
2022-10-12T11:05:04.456Z,23040
2022-10-12T11:06:07.631Z,124128
2022-10-12T11:07:10.985Z,126016
2022-10-12T11:08:14.407Z,128192
2022-10-12T11:09:17.018Z,127008
2022-10-12T11:10:20.116Z,26336
2022-10-12T11:11:24.044Z,24512
2022-10-12T11:12:30.291Z,94080
2022-10-12T11:13:34.674Z,124736
2022-10-12T11:14:37.399Z,119840
2022-10-12T11:15:40.214Z,124960
2022-10-12T11:16:42.740Z,127136
2022-10-12T11:17:45.820Z,43008
2022-10-12T11:18:48.723Z,129376
2022-10-12T11:19:51.746Z,126304
2022-10-12T11:20:54.965Z,27232
2022-10-12T11:21:57.920Z,27424
2022-10-12T11:23:01.430Z,98912
2022-10-12T11:24:05.595Z,24992
2022-10-12T11:25:09.042Z,22880
2022-10-12T11:26:12.180Z,33536
2022-10-12T11:27:15.586Z,25408
2022-10-12T11:28:19.714Z,117824
2022-10-12T11:29:22.911Z,23008
2022-10-12T11:30:25.809Z,19552
2022-10-12T11:31:29.843Z,19296
2022-10-12T11:32:33.404Z,20032
2022-10-12T11:33:36.473Z,20608
2022-10-12T11:34:40.092Z,26624
2022-10-12T11:35:43.905Z,119424
2022-10-12T11:37:07.386Z,105536
2022-10-12T11:38:23.989Z,114176
2022-10-12T11:39:27.747Z,113824
2022-10-12T11:40:48.056Z,115264
2022-10-12T11:42:43.159Z,55264
2022-10-12T11:43:46.452Z,16852
2022-10-12T11:44:49.510Z,20160
2022-10-12T11:45:53.130Z,119616
2022-10-12T11:46:56.999Z,20864
2022-10-12T11:48:00.723Z,19232
2022-10-12T11:49:03.714Z,19072
2022-10-12T11:50:06.408Z,18516
2022-10-12T11:51:10.155Z,17540
2022-10-12T11:52:13.227Z,17620
2022-10-12T11:53:16.256Z,18816
2022-10-12T11:54:19.743Z,20608
2022-10-12T11:55:23.285Z,52672
2022-10-12T11:56:27.655Z,107648
2022-10-12T11:57:31.378Z,109824
2022-10-12T11:58:56.315Z,113408
2022-10-12T12:00:04.740Z,118784
2022-10-12T12:01:08.950Z,117248
2022-10-12T12:02:11.413Z,119968
2022-10-12T12:03:14.412Z,120736
2022-10-12T12:04:40.325Z,121504
2022-10-12T12:05:52.872Z,119392
2022-10-12T12:06:56.297Z,117248
2022-10-12T12:07:59.496Z,117248
2022-10-12T12:09:02.710Z,115488
2022-10-12T12:10:05.902Z,110144
2022-10-12T12:11:09.165Z,105248
2022-10-12T12:12:12.628Z,103552
2022-10-12T12:13:16.001Z,97984
2022-10-12T12:14:20.218Z,18752
2022-10-12T12:15:22.739Z,81760
2022-10-12T12:16:25.949Z,40320
2022-10-12T12:17:32.082Z,100288
2022-10-12T12:18:35.513Z,102208
2022-10-12T12:19:38.416Z,105440
2022-10-12T12:20:43.191Z,108960
2022-10-12T12:21:46.665Z,111232
2022-10-12T12:22:49.212Z,24480
2022-10-12T12:23:52.802Z,11476
2022-10-12T12:24:55.893Z,10848
2022-10-12T12:25:59.279Z,12336
2022-10-12T12:27:02.674Z,50400
2022-10-12T12:28:05.778Z,106752
2022-10-12T12:29:08.686Z,104992
2022-10-12T12:30:11.790Z,27648
2022-10-12T12:31:14.948Z,40928
2022-10-12T12:32:18.190Z,15572
2022-10-12T12:33:20.718Z,17352
2022-10-12T12:34:24.188Z,23104
2022-10-12T12:35:26.975Z,66528
2022-10-12T12:36:30.329Z,27584
2022-10-12T12:37:33.676Z,41824
2022-10-12T12:38:37.119Z,41184
2022-10-12T12:39:40.784Z,19616
2022-10-12T12:40:46.340Z,17280
2022-10-12T12:41:54.234Z,17792
2022-10-12T12:43:05.240Z,15992
2022-10-12T12:44:07.981Z,14516
2022-10-12T12:45:11.343Z,14984
2022-10-12T12:46:14.615Z,16336
2022-10-12T12:47:43.748Z,16752
2022-10-12T12:48:49.437Z,16568
2022-10-12T12:49:52.282Z,16184
2022-10-12T12:50:55.244Z,43680
2022-10-12T12:51:58.808Z,48608
2022-10-12T12:53:02.155Z,21216
2022-10-12T12:54:04.783Z,21248
2022-10-12T12:55:07.877Z,19392
2022-10-12T12:56:11.008Z,17216
2022-10-12T12:57:14.167Z,71200
2022-10-12T12:58:17.963Z,48576
2022-10-12T12:59:20.928Z,34272
2022-10-12T13:00:24.477Z,15680
2022-10-12T13:01:29.155Z,12636
2022-10-12T13:02:33.966Z,11928
2022-10-12T13:03:37.249Z,10300
2022-10-12T13:04:40.629Z,11368
2022-10-12T13:05:44.058Z,8528
2022-10-12T13:06:47.066Z,8004
2022-10-12T13:07:50.507Z,7752
2022-10-12T13:08:53.627Z,8204
2022-10-12T13:09:56.226Z,7956
2022-10-12T13:10:59.290Z,8228
2022-10-12T13:12:02.307Z,19276
2022-10-12T13:13:05.561Z,8412
2022-10-12T13:14:08.700Z,8328
2022-10-12T13:15:12.082Z,8336
2022-10-12T13:16:28.626Z,8872
2022-10-12T13:18:46.803Z,8372
2022-10-12T13:19:52.175Z,8904
2022-10-12T13:20:55.708Z,9184
2022-10-12T13:21:58.866Z,14312
2022-10-12T13:23:02.311Z,12420
2022-10-12T13:24:05.309Z,15292
2022-10-12T13:25:07.847Z,13096
2022-10-12T13:26:10.442Z,13076
2022-10-12T13:27:14.181Z,13052
2022-10-12T13:28:17.488Z,13964
2022-10-12T13:29:20.788Z,21792
2022-10-12T13:30:24.517Z,17372
2022-10-12T13:31:27.896Z,43296
2022-10-12T13:32:30.818Z,43360
2022-10-12T13:33:36.144Z,25120
2022-10-12T13:34:39.368Z,32416
2022-10-12T13:35:43.164Z,9128
2022-10-12T13:36:46.026Z,19168
2022-10-12T13:37:50.412Z,52992
2022-10-12T13:38:53.565Z,9348
2022-10-12T13:39:56.931Z,7712
2022-10-12T13:40:59.913Z,20224
2022-10-12T13:42:03.109Z,8416
2022-10-12T13:43:06.465Z,7972
2022-10-12T13:44:10.140Z,7884
2022-10-12T13:45:13.606Z,8036
2022-10-12T13:46:16.121Z,15956
2022-10-12T13:47:19.232Z,15216
2022-10-12T13:48:34.293Z,35296
2022-10-12T13:50:03.136Z,10852
2022-10-12T13:51:06.137Z,11300
2022-10-12T13:52:09.261Z,12528
2022-10-12T13:53:13.750Z,14748
2022-10-12T13:54:16.882Z,15724
2022-10-12T13:55:20.598Z,10360
2022-10-12T13:56:23.106Z,10532
2022-10-12T13:57:26.346Z,10556
2022-10-12T13:58:28.970Z,10484
2022-10-12T13:59:32.838Z,8024
2022-10-12T14:00:35.951Z,7988
2022-10-12T14:01:39.279Z,8860
2022-10-12T14:02:42.270Z,8872
2022-10-12T14:03:44.990Z,8408
2022-10-12T14:04:48.004Z,9524
2022-10-12T14:05:55.144Z,11052
2022-10-12T14:07:06.517Z,13532
2022-10-12T14:08:09.352Z,11768
2022-10-12T14:09:13.532Z,11224
2022-10-12T14:10:17.171Z,10884
2022-10-12T14:11:19.669Z,10056
2022-10-12T14:12:25.388Z,9756
2022-10-12T14:13:28.998Z,11636
2022-10-12T14:14:32.544Z,9616
2022-10-12T14:15:35.699Z,23264
2022-10-12T14:16:38.597Z,15232
2022-10-12T14:17:43.610Z,14344
2022-10-12T14:18:47.363Z,12748
2022-10-12T14:19:50.762Z,6208
2022-10-12T14:20:53.562Z,5284
2022-10-12T14:21:56.367Z,5048
2022-10-12T14:22:59.646Z,5028
2022-10-12T14:24:03.336Z,4980
2022-10-12T14:25:07.796Z,4928
2022-10-12T14:26:10.611Z,4900
2022-10-12T14:27:13.607Z,4860
2022-10-12T14:28:16.722Z,4840
2022-10-12T14:29:19.432Z,4784
2022-10-12T14:30:22.279Z,4772
2022-10-12T14:31:25.903Z,4716
2022-10-12T14:32:29.403Z,4684
2022-10-12T14:33:32.486Z,4644
2022-10-12T14:34:34.991Z,4596
2022-10-12T14:35:38.428Z,4612